Time;durP1;ratioP1;P1;durP2;ratioP2;P2;SDS_P1;SDS_P2;PMS_P1;PMS_P2;Temp;Humidity;BMP_temperature;BMP_pressure;BME280_temperature;BME280_humidity;BME280_pressure;Samples;Min_cycle;Max_cycle;Signal;HPM_P1;HPM_P2
2023/05/13 00:00:36;;;;;;;;;;;13.50;99.90;;;;;;5036480;28;19984;-69
2023/05/13 00:03:01;;;;;;;;;;;13.50;99.90;;;;;;5036660;28;19931;-69
2023/05/13 00:05:27;;;;;;;;;;;13.40;99.90;;;;;;5053620;28;19990;-70
2023/05/13 00:07:52;;;;;;;;;;;13.40;99.90;;;;;;5054051;28;19921;-69
2023/05/13 00:10:19;;;;;;;;;;;13.40;99.90;;;;;;5036221;28;20431;-72
2023/05/13 00:12:45;;;;;;;;;;;13.40;99.90;;;;;;5035792;28;19971;-69
2023/05/13 00:15:10;;;;;;;;;;;13.40;99.90;;;;;;5054134;28;19924;-70
2023/05/13 00:17:36;;;;;;;;;;;13.30;99.90;;;;;;5053113;28;19921;-69
2023/05/13 00:20:02;;;;;;;;;;;13.30;99.90;;;;;;5035940;28;19928;-69
2023/05/13 00:22:28;;;;;;;;;;;13.30;99.90;;;;;;5035606;28;19974;-69
2023/05/13 00:24:54;;;;;;;;;;;13.20;99.90;;;;;;5067852;28;19921;-70
2023/05/13 00:27:19;;;;;;;;;;;13.20;99.90;;;;;;5068804;28;20084;-72
2023/05/13 00:29:45;;;;;;;;;;;13.20;99.90;;;;;;5053503;28;19978;-69
2023/05/13 00:32:10;;;;;;;;;;;13.20;99.90;;;;;;5069430;28;20369;-69
2023/05/13 00:34:36;;;;;;;;;;;13.20;99.90;;;;;;5053322;28;19927;-71
2023/05/13 00:37:01;;;;;;;;;;;13.20;99.90;;;;;;5053378;28;19921;-69
2023/05/13 00:39:27;;;;;;;;;;;13.20;99.90;;;;;;5069012;28;19921;-70
2023/05/13 00:41:53;;;;;;;;;;;13.10;99.90;;;;;;5035544;28;19921;-69
2023/05/13 00:44:19;;;;;;;;;;;13.10;99.90;;;;;;5052067;28;19921;-70
2023/05/13 00:46:44;;;;;;;;;;;13.10;99.90;;;;;;5018912;28;20288;-69
2023/05/13 00:49:10;;;;;;;;;;;13.00;99.90;;;;;;5035530;28;20411;-69
2023/05/13 00:51:35;;;;;;;;;;;13.00;99.90;;;;;;5035334;28;20365;-69
2023/05/13 00:54:01;;;;;;;;;;;13.00;99.90;;;;;;5035796;28;20438;-70
2023/05/13 00:56:27;;;;;;;;;;;13.00;99.90;;;;;;5031526;28;20523;-69
2023/05/13 00:58:52;;;;;;;;;;;13.00;99.90;;;;;;5032712;28;19924;-69
2023/05/13 01:01:32;;;;;;;;;;;12.90;99.90;;;;;;5033169;28;19947;-70
2023/05/13 01:04:16;;;;;;;;;;;12.90;99.90;;;;;;5015645;28;19965;-69
2023/05/13 01:07:01;;;;;;;;;;;12.90;99.90;;;;;;5031602;28;19921;-69
2023/05/13 01:09:36;;;;;;;;;;;12.90;99.90;;;;;;5031809;28;19921;-69
2023/05/13 01:12:06;;;;;;;;;;;12.80;99.90;;;;;;5032852;28;19921;-69
2023/05/13 01:14:34;;;;;;;;;;;12.80;99.90;;;;;;5032527;28;19921;-69
2023/05/13 01:17:02;;;;;;;;;;;12.80;99.90;;;;;;5032751;28;20023;-70
2023/05/13 01:19:45;;;;;;;;;;;12.80;99.90;;;;;;5031250;28;19921;-70
2023/05/13 01:22:10;;;;;;;;;;;12.70;99.90;;;;;;5031221;28;20011;-69
2023/05/13 01:24:36;;;;;;;;;;;12.70;99.90;;;;;;5031110;28;20012;-69
2023/05/13 01:27:02;;;;;;;;;;;12.70;99.90;;;;;;5015111;28;19921;-69
2023/05/13 01:29:27;;;;;;;;;;;12.70;99.90;;;;;;5030733;28;19929;-69
2023/05/13 01:31:54;;;;;;;;;;;12.70;99.90;;;;;;5031905;28;19921;-69
2023/05/13 01:34:20;;;;;;;;;;;12.60;99.90;;;;;;5031408;28;19931;-69
2023/05/13 01:36:46;;;;;;;;;;;12.60;99.90;;;;;;5031028;28;20559;-70
2023/05/13 01:39:12;;;;;;;;;;;12.50;99.90;;;;;;5031416;28;19995;-69
2023/05/13 01:41:37;;;;;;;;;;;12.50;99.90;;;;;;5014500;28;19953;-69
2023/05/13 01:44:03;;;;;;;;;;;12.50;99.90;;;;;;5031552;28;19928;-69
2023/05/13 01:46:29;;;;;;;;;;;12.50;99.90;;;;;;5031095;28;19921;-69
2023/05/13 01:48:54;;;;;;;;;;;12.40;99.90;;;;;;5014966;28;19921;-69
2023/05/13 01:51:20;;;;;;;;;;;12.40;99.90;;;;;;5032274;28;19921;-70
2023/05/13 01:53:45;;;;;;;;;;;12.40;99.90;;;;;;5030855;28;20486;-69
2023/05/13 01:56:11;;;;;;;;;;;12.40;99.90;;;;;;5030815;28;20370;-69
2023/05/13 01:58:37;;;;;;;;;;;12.40;99.90;;;;;;5031353;28;20397;-69
2023/05/13 02:01:02;;;;;;;;;;;12.40;99.90;;;;;;5030946;28;20251;-70
2023/05/13 02:03:28;;;;;;;;;;;12.30;99.90;;;;;;5031821;28;19921;-72
2023/05/13 02:05:54;;;;;;;;;;;12.30;99.90;;;;;;5032115;28;19943;-69
2023/05/13 02:08:22;;;;;;;;;;;12.30;99.90;;;;;;5031291;28;19925;-70
2023/05/13 02:10:57;;;;;;;;;;;12.30;99.90;;;;;;5030930;28;20008;-70
2023/05/13 02:13:23;;;;;;;;;;;12.20;99.90;;;;;;5014136;28;19967;-70
2023/05/13 02:15:49;;;;;;;;;;;12.20;99.90;;;;;;5031627;28;19925;-69
2023/05/13 02:18:14;;;;;;;;;;;12.20;99.90;;;;;;5030669;28;20423;-70
2023/05/13 02:20:40;;;;;;;;;;;12.20;99.90;;;;;;5031622;28;19947;-69
2023/05/13 02:23:06;;;;;;;;;;;12.10;99.90;;;;;;5030677;28;20438;-70
2023/05/13 02:25:32;;;;;;;;;;;12.10;99.90;;;;;;5014153;28;19921;-70
2023/05/13 02:27:58;;;;;;;;;;;12.10;99.90;;;;;;5031459;28;19952;-70
2023/05/13 02:30:25;;;;;;;;;;;12.10;99.90;;;;;;5030988;28;19921;-69
2023/05/13 02:32:55;;;;;;;;;;;12.10;99.90;;;;;;5014133;28;19917;-69
2023/05/13 02:35:21;;;;;;;;;;;12.10;99.90;;;;;;5031800;28;19978;-70
2023/05/13 02:37:47;;;;;;;;;;;12.00;99.90;;;;;;5030342;28;20419;-69
2023/05/13 02:40:13;;;;;;;;;;;12.00;99.90;;;;;;5030870;28;19921;-69
2023/05/13 02:42:38;;;;;;;;;;;12.10;99.90;;;;;;5013684;28;19921;-69
2023/05/13 02:45:04;;;;;;;;;;;12.00;99.90;;;;;;5014426;28;19921;-69
2023/05/13 02:47:30;;;;;;;;;;;12.00;99.90;;;;;;5030488;28;19964;-70
2023/05/13 02:49:55;;;;;;;;;;;12.00;99.90;;;;;;5030566;28;19928;-69
2023/05/13 02:52:21;;;;;;;;;;;12.00;99.90;;;;;;5014062;28;20515;-71
2023/05/13 02:54:47;;;;;;;;;;;12.00;99.90;;;;;;5031390;28;19925;-70
2023/05/13 02:57:13;;;;;;;;;;;12.00;99.90;;;;;;5050722;28;19975;-69
2023/05/13 02:59:38;;;;;;;;;;;11.90;99.90;;;;;;5033402;28;19920;-69
2023/05/13 03:02:04;;;;;;;;;;;11.90;99.90;;;;;;5051489;28;19955;-69
2023/05/13 03:04:30;;;;;;;;;;;11.90;99.90;;;;;;5033210;28;19967;-69
2023/05/13 03:06:55;;;;;;;;;;;11.90;99.90;;;;;;5052987;28;19927;-70
2023/05/13 03:09:21;;;;;;;;;;;11.90;99.90;;;;;;5037704;28;19971;-69
2023/05/13 03:11:47;;;;;;;;;;;11.80;99.90;;;;;;5054887;28;20007;-69
2023/05/13 03:14:12;;;;;;;;;;;11.80;99.90;;;;;;5054795;28;19921;-69
2023/05/13 03:16:38;;;;;;;;;;;11.80;99.90;;;;;;5070744;28;19955;-71
2023/05/13 03:19:03;;;;;;;;;;;11.80;99.90;;;;;;5021138;28;19920;-69
2023/05/13 03:21:29;;;;;;;;;;;11.80;99.90;;;;;;5070540;28;19986;-69
2023/05/13 03:23:54;;;;;;;;;;;11.80;99.90;;;;;;5054760;28;19927;-69
2023/05/13 03:26:21;;;;;;;;;;;11.80;99.90;;;;;;5055229;28;19990;-70
2023/05/13 03:28:46;;;;;;;;;;;11.80;99.90;;;;;;5036716;28;19970;-69
2023/05/13 03:31:12;;;;;;;;;;;11.70;99.90;;;;;;5020907;28;20003;-70
2023/05/13 03:33:37;;;;;;;;;;;11.70;99.90;;;;;;5070070;28;19927;-72
2023/05/13 03:36:03;;;;;;;;;;;11.70;99.90;;;;;;5070455;28;19928;-69
2023/05/13 03:38:29;;;;;;;;;;;11.70;99.90;;;;;;5054918;28;20354;-70
2023/05/13 03:40:55;;;;;;;;;;;11.70;99.90;;;;;;5037058;28;19967;-69
2023/05/13 03:43:20;;;;;;;;;;;11.60;99.90;;;;;;5069669;28;19980;-69
2023/05/13 03:45:47;;;;;;;;;;;11.60;99.90;;;;;;5054378;28;19922;-69
2023/05/13 03:48:13;;;;;;;;;;;11.60;99.90;;;;;;5036755;28;19920;-70
2023/05/13 03:50:39;;;;;;;;;;;11.60;99.90;;;;;;5020334;28;19975;-72
2023/05/13 03:53:05;;;;;;;;;;;11.50;99.90;;;;;;5036810;28;20315;-69
2023/05/13 03:55:31;;;;;;;;;;;11.50;99.90;;;;;;5036462;28;20330;-69
2023/05/13 03:57:57;;;;;;;;;;;11.50;99.90;;;;;;5053302;28;20015;-69
2023/05/13 04:00:23;;;;;;;;;;;11.50;99.90;;;;;;5036776;28;20007;-69
2023/05/13 04:02:48;;;;;;;;;;;11.50;99.90;;;;;;5053988;28;19920;-70
2023/05/13 04:05:14;;;;;;;;;;;11.50;99.90;;;;;;5036544;28;20323;-70
2023/05/13 04:07:40;;;;;;;;;;;11.50;99.90;;;;;;5036359;28;19925;-70
2023/05/13 04:10:06;;;;;;;;;;;11.50;99.90;;;;;;5036144;28;20058;-69
2023/05/13 04:12:32;;;;;;;;;;;11.50;99.90;;;;;;5036219;28;20019;-69
2023/05/13 04:14:58;;;;;;;;;;;11.50;99.90;;;;;;5053802;28;19927;-69
2023/05/13 04:17:23;;;;;;;;;;;11.50;99.90;;;;;;5054089;28;19920;-69
2023/05/13 04:19:52;;;;;;;;;;;11.50;99.90;;;;;;5053949;28;19925;-69
2023/05/13 04:22:18;;;;;;;;;;;11.50;99.90;;;;;;5036403;28;19920;-69
2023/05/13 04:24:44;;;;;;;;;;;11.50;99.90;;;;;;5053918;28;20020;-72
2023/05/13 04:27:09;;;;;;;;;;;11.50;99.90;;;;;;5036119;28;19974;-69
2023/05/13 04:29:35;;;;;;;;;;;11.60;99.90;;;;;;5069554;28;19921;-69
2023/05/13 04:32:00;;;;;;;;;;;11.60;99.90;;;;;;5053914;28;19924;-69
2023/05/13 04:34:26;;;;;;;;;;;11.60;99.90;;;;;;5053485;28;19921;-69
2023/05/13 04:36:51;;;;;;;;;;;11.60;99.90;;;;;;5068997;28;19943;-69
2023/05/13 04:39:17;;;;;;;;;;;11.60;99.90;;;;;;5069551;28;19928;-69
2023/05/13 04:41:42;;;;;;;;;;;11.60;99.90;;;;;;5069586;28;19920;-69
2023/05/13 04:44:08;;;;;;;;;;;11.60;99.90;;;;;;5035031;28;20016;-69
2023/05/13 04:46:36;;;;;;;;;;;11.60;99.90;;;;;;5053472;28;20011;-70
2023/05/13 04:49:02;;;;;;;;;;;11.60;99.90;;;;;;5035325;28;20478;-70
2023/05/13 04:51:28;;;;;;;;;;;11.60;99.90;;;;;;5053578;28;20014;-70
2023/05/13 04:53:53;;;;;;;;;;;11.60;99.90;;;;;;5035615;28;19928;-69
2023/05/13 04:56:19;;;;;;;;;;;11.60;99.90;;;;;;5035535;28;19924;-70
2023/05/13 04:58:45;;;;;;;;;;;11.60;99.90;;;;;;5035388;28;19921;-70
2023/05/13 05:01:10;;;;;;;;;;;11.60;99.90;;;;;;5068622;28;19936;-69
2023/05/13 05:03:36;;;;;;;;;;;11.60;99.90;;;;;;5068629;28;19920;-70
2023/05/13 05:06:01;;;;;;;;;;;11.60;99.90;;;;;;5068147;28;19920;-70
2023/05/13 05:08:27;;;;;;;;;;;11.60;99.90;;;;;;5035484;28;19921;-69
2023/05/13 05:10:53;;;;;;;;;;;11.60;99.90;;;;;;5018909;28;20375;-70
2023/05/13 05:13:18;;;;;;;;;;;11.60;99.90;;;;;;5052759;28;19921;-70
2023/05/13 05:15:44;;;;;;;;;;;11.70;99.90;;;;;;5052954;28;19927;-69
2023/05/13 05:18:09;;;;;;;;;;;11.70;99.90;;;;;;5068268;28;19931;-69
2023/05/13 05:20:36;;;;;;;;;;;11.70;99.90;;;;;;5052939;28;20003;-69
2023/05/13 05:23:02;;;;;;;;;;;11.70;99.90;;;;;;5018284;28;19948;-70
2023/05/13 05:25:28;;;;;;;;;;;11.70;99.90;;;;;;5052802;28;20357;-71
2023/05/13 05:27:54;;;;;;;;;;;11.70;99.90;;;;;;5052072;28;19921;-70
2023/05/13 05:30:19;;;;;;;;;;;11.80;99.90;;;;;;5018529;28;19931;-69
2023/05/13 05:32:45;;;;;;;;;;;11.80;99.90;;;;;;5035060;28;19974;-69
2023/05/13 05:35:11;;;;;;;;;;;11.80;99.90;;;;;;5052474;28;19931;-70
2023/05/13 05:37:36;;;;;;;;;;;11.90;99.90;;;;;;5001987;28;20003;-69
2023/05/13 05:40:02;;;;;;;;;;;11.90;99.90;;;;;;5068072;28;19927;-70
2023/05/13 05:42:28;;;;;;;;;;;12.00;99.90;;;;;;5034495;28;20015;-70
2023/05/13 05:44:53;;;;;;;;;;;12.00;99.90;;;;;;5052220;28;20016;-73
2023/05/13 05:47:19;;;;;;;;;;;12.20;99.90;;;;;;5067899;28;20047;-69
2023/05/13 05:49:45;;;;;;;;;;;12.20;99.90;;;;;;5035129;28;20388;-69
2023/05/13 05:52:12;;;;;;;;;;;12.20;99.90;;;;;;5017801;28;20290;-69
2023/05/13 05:54:37;;;;;;;;;;;12.30;99.90;;;;;;5052550;28;19924;-70
2023/05/13 05:57:03;;;;;;;;;;;12.40;99.90;;;;;;5067601;28;19947;-69
2023/05/13 05:59:28;;;;;;;;;;;12.50;99.90;;;;;;5052085;28;19928;-70
2023/05/13 06:01:54;;;;;;;;;;;12.60;99.90;;;;;;5034537;28;19921;-72
2023/05/13 06:04:20;;;;;;;;;;;12.60;99.90;;;;;;5067580;28;19970;-70
2023/05/13 06:06:45;;;;;;;;;;;12.70;99.90;;;;;;5051967;28;20395;-71
2023/05/13 06:09:11;;;;;;;;;;;12.80;99.90;;;;;;5052010;28;19981;-69
2023/05/13 06:11:36;;;;;;;;;;;12.80;99.90;;;;;;5034562;28;19921;-70
2023/05/13 06:14:02;;;;;;;;;;;12.90;99.90;;;;;;5051412;28;19935;-70
2023/05/13 06:16:27;;;;;;;;;;;12.90;99.90;;;;;;5034429;28;19928;-69
2023/05/13 06:18:53;;;;;;;;;;;13.00;99.90;;;;;;5067596;28;20015;-69
2023/05/13 06:21:18;;;;;;;;;;;13.10;99.90;;;;;;5067338;28;20007;-70
2023/05/13 06:23:44;;;;;;;;;;;13.10;99.90;;;;;;5017996;28;20028;-70
2023/05/13 06:26:10;;;;;;;;;;;13.20;99.90;;;;;;5033976;28;19970;-70
2023/05/13 06:28:35;;;;;;;;;;;13.20;99.90;;;;;;5051808;28;19921;-69
2023/05/13 06:31:01;;;;;;;;;;;13.20;99.90;;;;;;5067411;28;20016;-70
2023/05/13 06:33:27;;;;;;;;;;;13.20;99.90;;;;;;5034244;28;19921;-70
2023/05/13 06:35:52;;;;;;;;;;;13.20;99.90;;;;;;5051783;28;19920;-69
2023/05/13 06:38:18;;;;;;;;;;;13.30;99.90;;;;;;5067314;28;20282;-70
2023/05/13 06:40:44;;;;;;;;;;;13.30;99.90;;;;;;5067926;28;20373;-70
2023/05/13 06:43:13;;;;;;;;;;;13.30;99.90;;;;;;5037634;28;19924;-70
2023/05/13 06:45:38;;;;;;;;;;;13.30;99.90;;;;;;5037516;28;19946;-70
2023/05/13 06:48:04;;;;;;;;;;;13.40;99.90;;;;;;5037866;28;19925;-70
2023/05/13 06:50:30;;;;;;;;;;;13.40;99.90;;;;;;5037986;28;20342;-69
2023/05/13 06:52:56;;;;;;;;;;;13.50;99.90;;;;;;5038012;28;19920;-70
2023/05/13 06:55:22;;;;;;;;;;;13.50;99.90;;;;;;5055384;28;19920;-71
2023/05/13 06:57:47;;;;;;;;;;;13.60;99.90;;;;;;5070962;28;20063;-70
2023/05/13 07:00:14;;;;;;;;;;;13.70;99.90;;;;;;5055409;28;19921;-68
2023/05/13 07:02:40;;;;;;;;;;;13.80;99.90;;;;;;5055591;28;19931;-69
2023/05/13 07:05:06;;;;;;;;;;;13.90;99.90;;;;;;5037271;28;19921;-69
2023/05/13 07:07:32;;;;;;;;;;;14.00;99.90;;;;;;5037510;28;19925;-71
2023/05/13 07:09:57;;;;;;;;;;;14.00;99.90;;;;;;5055585;28;19928;-70
2023/05/13 07:12:23;;;;;;;;;;;14.00;99.90;;;;;;5070445;28;19971;-71
2023/05/13 07:14:49;;;;;;;;;;;14.10;99.90;;;;;;5037820;28;19921;-72
2023/05/13 07:17:15;;;;;;;;;;;14.10;99.90;;;;;;5037215;28;19943;-69
2023/05/13 07:19:41;;;;;;;;;;;14.20;99.90;;;;;;5055437;28;19927;-70
2023/05/13 07:22:06;;;;;;;;;;;14.20;99.90;;;;;;5054796;28;19920;-70
2023/05/13 07:24:32;;;;;;;;;;;14.20;99.90;;;;;;5037519;28;19966;-69
2023/05/13 07:26:57;;;;;;;;;;;14.30;99.90;;;;;;5021070;28;19921;-69
2023/05/13 07:29:24;;;;;;;;;;;14.30;99.90;;;;;;5070022;28;20091;-69
2023/05/13 07:31:49;;;;;;;;;;;14.40;99.90;;;;;;5037707;28;19924;-69
2023/05/13 07:34:15;;;;;;;;;;;14.50;99.90;;;;;;5054589;28;19921;-69
2023/05/13 07:36:41;;;;;;;;;;;14.50;99.90;;;;;;5020851;28;19921;-69
2023/05/13 07:39:07;;;;;;;;;;;14.60;99.90;;;;;;5054556;28;19927;-70
2023/05/13 07:41:33;;;;;;;;;;;14.60;99.90;;;;;;5037460;28;19927;-69
2023/05/13 07:43:59;;;;;;;;;;;14.70;99.90;;;;;;5036777;28;20007;-69
2023/05/13 07:46:24;;;;;;;;;;;14.70;99.90;;;;;;5054256;28;19920;-69
2023/05/13 07:48:50;;;;;;;;;;;14.80;99.90;;;;;;5020661;28;19925;-69
2023/05/13 07:51:17;;;;;;;;;;;14.90;99.90;;;;;;5069654;28;19990;-69
2023/05/13 07:53:44;;;;;;;;;;;14.90;99.90;;;;;;5036395;28;19920;-70
2023/05/13 07:56:09;;;;;;;;;;;15.00;99.90;;;;;;5053722;28;20441;-78
2023/05/13 07:58:36;;;;;;;;;;;15.00;99.90;;;;;;5069416;28;19956;-74
2023/05/13 08:01:02;;;;;;;;;;;15.20;99.90;;;;;;5037060;28;20323;-70
2023/05/13 08:03:28;;;;;;;;;;;15.30;99.90;;;;;;5053943;28;19925;-78
2023/05/13 08:05:54;;;;;;;;;;;15.40;99.90;;;;;;5036297;28;19921;-80
2023/05/13 08:08:19;;;;;;;;;;;15.40;99.90;;;;;;5036501;28;20016;-69
2023/05/13 08:10:45;;;;;;;;;;;15.50;99.90;;;;;;5068860;28;19975;-70
2023/05/13 08:13:10;;;;;;;;;;;15.60;99.90;;;;;;5052111;28;19935;-69
2023/05/13 08:15:36;;;;;;;;;;;15.70;99.90;;;;;;5069395;28;20409;-69
2023/05/13 08:18:02;;;;;;;;;;;15.70;99.90;;;;;;5035990;28;19921;-68
2023/05/13 08:20:28;;;;;;;;;;;15.80;99.90;;;;;;5053720;28;20498;-69
2023/05/13 08:22:57;;;;;;;;;;;15.80;99.90;;;;;;5053955;28;20077;-69
2023/05/13 08:25:22;;;;;;;;;;;15.90;99.90;;;;;;5035704;28;20018;-69
2023/05/13 08:27:48;;;;;;;;;;;16.00;99.90;;;;;;5052438;28;19920;-69
2023/05/13 08:30:14;;;;;;;;;;;16.10;99.90;;;;;;5053347;28;20385;-69
2023/05/13 08:32:39;;;;;;;;;;;16.20;99.90;;;;;;5035559;28;20035;-69
2023/05/13 08:35:05;;;;;;;;;;;16.30;99.90;;;;;;5053748;28;20011;-68
2023/05/13 08:37:31;;;;;;;;;;;16.30;99.90;;;;;;5035662;28;19920;-72
2023/05/13 08:39:59;;;;;;;;;;;16.40;99.90;;;;;;5019588;28;19936;-70
2023/05/13 08:42:26;;;;;;;;;;;16.50;99.90;;;;;;5035062;28;19921;-72
2023/05/13 08:44:52;;;;;;;;;;;16.50;99.90;;;;;;5036120;28;20361;-71
2023/05/13 08:47:26;;;;;;;;;;;16.60;99.90;;;;;;5035577;28;19968;-70
2023/05/13 08:49:52;;;;;;;;;;;16.60;99.90;;;;;;5035922;28;19935;-71
2023/05/13 08:52:19;;;;;;;;;;;16.70;99.90;;;;;;5035320;28;19920;-72
2023/05/13 08:54:45;;;;;;;;;;;16.80;99.90;;;;;;5019216;28;19921;-70
2023/05/13 08:57:11;;;;;;;;;;;16.90;99.90;;;;;;5019094;28;19925;-70
2023/05/13 08:59:36;;;;;;;;;;;16.90;99.90;;;;;;5035142;28;19921;-71
2023/05/13 09:02:03;;;;;;;;;;;16.90;99.90;;;;;;5053489;28;19925;-71
2023/05/13 09:04:29;;;;;;;;;;;17.00;99.90;;;;;;5051880;28;20023;-71
2023/05/13 09:06:55;;;;;;;;;;;17.00;99.90;;;;;;5035635;28;19979;-71
2023/05/13 09:09:20;;;;;;;;;;;17.00;99.90;;;;;;5018983;28;19999;-71
2023/05/13 09:11:47;;;;;;;;;;;17.10;99.90;;;;;;5035591;28;19927;-71
2023/05/13 09:14:13;;;;;;;;;;;17.10;99.90;;;;;;5035134;28;20004;-72
2023/05/13 09:16:38;;;;;;;;;;;17.20;99.90;;;;;;5052978;28;20017;-71
2023/05/13 09:19:05;;;;;;;;;;;17.30;99.90;;;;;;5052583;28;19927;-73
2023/05/13 09:21:31;;;;;;;;;;;17.40;99.90;;;;;;5034639;28;19925;-74
2023/05/13 09:24:07;;;;;;;;;;;17.50;99.90;;;;;;5052796;28;19943;-72
2023/05/13 09:26:32;;;;;;;;;;;17.50;99.90;;;;;;5034683;28;19920;-72
2023/05/13 09:29:17;;;;;;;;;;;17.60;99.90;;;;;;5034805;28;20071;-73
2023/05/13 09:31:43;;;;;;;;;;;17.70;99.90;;;;;;5035258;28;20365;-72
2023/05/13 09:34:09;;;;;;;;;;;17.80;99.90;;;;;;5052498;28;19921;-72
2023/05/13 09:36:34;;;;;;;;;;;17.90;99.90;;;;;;5067778;28;20471;-73
2023/05/13 09:39:01;;;;;;;;;;;17.90;99.90;;;;;;5034796;28;19924;-72
2023/05/13 09:41:27;;;;;;;;;;;18.00;99.90;;;;;;5052140;28;20487;-73
2023/05/13 09:43:53;;;;;;;;;;;18.10;99.90;;;;;;5034059;28;19976;-73
2023/05/13 09:46:19;;;;;;;;;;;18.20;99.90;;;;;;5051850;28;19921;-73
2023/05/13 09:48:45;;;;;;;;;;;18.30;99.90;;;;;;5034566;28;19921;-72
2023/05/13 09:51:10;;;;;;;;;;;18.40;99.90;;;;;;5068107;28;20015;-65
2023/05/13 09:53:36;;;;;;;;;;;18.50;99.90;;;;;;5034453;28;19917;-74
2023/05/13 09:56:02;;;;;;;;;;;18.50;99.90;;;;;;5052571;28;20276;-73
2023/05/13 09:58:29;;;;;;;;;;;18.70;99.90;;;;;;5051194;28;19974;-73
2023/05/13 10:00:55;;;;;;;;;;;18.80;99.90;;;;;;5034798;28;19921;-72
2023/05/13 10:03:21;;;;;;;;;;;18.90;99.90;;;;;;5051737;28;19995;-79
2023/05/13 10:05:47;;;;;;;;;;;19.10;99.90;;;;;;5052087;28;19972;-68
2023/05/13 10:08:13;;;;;;;;;;;19.20;99.90;;;;;;5051808;28;19920;-69
2023/05/13 10:10:40;;;;;;;;;;;19.20;99.90;;;;;;5051844;28;20515;-71
2023/05/13 10:13:07;;;;;;;;;;;19.30;99.90;;;;;;5017689;28;19921;-73
2023/05/13 10:15:33;;;;;;;;;;;19.40;99.90;;;;;;5034010;28;20277;-73
2023/05/13 10:17:59;;;;;;;;;;;19.40;99.90;;;;;;5017811;28;19928;-74
2023/05/13 10:20:25;;;;;;;;;;;19.50;99.90;;;;;;5017390;28;19986;-78
2023/05/13 10:22:51;;;;;;;;;;;19.60;99.90;;;;;;5034581;28;19920;-77
2023/05/13 10:25:17;;;;;;;;;;;19.70;99.90;;;;;;5051914;28;19920;-69
2023/05/13 10:27:43;;;;;;;;;;;19.80;99.90;;;;;;5050957;28;20368;-73
2023/05/13 10:30:09;;;;;;;;;;;20.00;99.90;;;;;;5034605;28;19920;-74
2023/05/13 10:32:36;;;;;;;;;;;20.10;99.90;;;;;;5033674;28;19963;-73
2023/05/13 10:35:09;;;;;;;;;;;20.20;99.90;;;;;;5034570;28;19971;-70
2023/05/13 10:37:48;;;;;;;;;;;20.30;99.90;;;;;;5051268;28;19982;-73
2023/05/13 10:40:28;;;;;;;;;;;20.40;99.90;;;;;;5052143;28;19924;-73
2023/05/13 10:43:00;;;;;;;;;;;20.50;99.90;;;;;;5017510;28;20316;-72
2023/05/13 10:45:26;;;;;;;;;;;20.60;99.90;;;;;;5051224;28;20303;-72
2023/05/13 10:47:53;;;;;;;;;;;20.70;99.90;;;;;;5033492;28;20466;-72
2023/05/13 10:50:23;;;;;;;;;;;20.80;99.90;;;;;;5033884;28;20281;-71
2023/05/13 10:52:48;;;;;;;;;;;20.90;99.90;;;;;;5051700;28;19920;-76
2023/05/13 10:55:18;;;;;;;;;;;21.00;99.90;;;;;;5030817;28;19928;-75
2023/05/13 10:58:03;;;;;;;;;;;21.20;96.80;;;;;;5030140;28;19925;-77
2023/05/13 11:00:31;;;;;;;;;;;21.50;94.60;;;;;;5029910;28;20365;-76
2023/05/13 11:03:07;;;;;;;;;;;21.70;96.20;;;;;;5030395;28;20020;-74
2023/05/13 11:05:33;;;;;;;;;;;21.80;95.50;;;;;;5031199;28;19921;-69
2023/05/13 11:07:59;;;;;;;;;;;21.90;95.50;;;;;;5013918;28;19921;-72
2023/05/13 11:10:27;;;;;;;;;;;22.10;85.30;;;;;;5030634;28;19921;-74
2023/05/13 11:13:11;;;;;;;;;;;22.40;73.10;;;;;;5030347;28;19925;-72
2023/05/13 11:15:43;;;;;;;;;;;22.70;68.10;;;;;;5030361;28;20358;-73
2023/05/13 11:18:10;;;;;;;;;;;22.90;66.10;;;;;;5030633;28;19921;-69
2023/05/13 11:20:36;;;;;;;;;;;23.20;69.80;;;;;;5030258;28;19921;-74
2023/05/13 11:23:01;;;;;;;;;;;23.50;76.70;;;;;;5031621;28;19921;-74
2023/05/13 11:25:27;;;;;;;;;;;23.80;78.30;;;;;;5030179;28;20277;-75
2023/05/13 11:27:53;;;;;;;;;;;24.00;61.90;;;;;;5031974;28;19927;-73
2023/05/13 11:30:23;;;;;;;;;;;24.30;66.40;;;;;;5034368;28;19921;-73
2023/05/13 11:32:55;;;;;;;;;;;24.60;67.50;;;;;;5033413;28;20000;-82
2023/05/13 11:35:22;;;;;;;;;;;24.90;67.10;;;;;;5035067;28;19928;-68
2023/05/13 11:37:48;;;;;;;;;;;25.40;67.30;;;;;;5034702;28;19917;-67
2023/05/13 11:40:20;;;;;;;;;;;25.50;60.50;;;;;;5034252;28;19921;-68
2023/05/13 11:42:46;;;;;;;;;;;25.40;62.00;;;;;;5033367;28;20495;-68
2023/05/13 11:45:12;;;;;;;;;;;25.60;61.70;;;;;;5033928;28;19928;-68
2023/05/13 11:47:38;;;;;;;;;;;26.10;62.30;;;;;;5033506;28;20300;-74
2023/05/13 11:50:16;;;;;;;;;;;26.50;62.30;;;;;;5035056;28;19921;-69
2023/05/13 11:52:42;;;;;;;;;;;26.90;53.20;;;;;;5034283;28;19921;-69
2023/05/13 11:55:08;;;;;;;;;;;27.40;56.70;;;;;;5038850;28;19921;-69
2023/05/13 11:57:33;;;;;;;;;;;27.90;57.80;;;;;;5036227;28;19927;-67
2023/05/13 12:00:00;;;;;;;;;;;28.50;56.30;;;;;;5054801;28;19920;-69
2023/05/13 12:02:27;;;;;;;;;;;28.90;55.40;;;;;;5036504;28;20544;-65
2023/05/13 12:04:53;;;;;;;;;;;29.30;54.10;;;;;;5053989;28;20407;-73
2023/05/13 12:07:22;;;;;;;;;;;29.40;46.90;;;;;;5070069;28;19924;-74
2023/05/13 12:09:48;;;;;;;;;;;29.60;47.00;;;;;;5053942;28;20272;-74
2023/05/13 12:12:15;;;;;;;;;;;29.80;51.20;;;;;;5054008;28;19920;-75
2023/05/13 12:14:42;;;;;;;;;;;29.90;52.50;;;;;;5036215;28;19924;-71
2023/05/13 12:17:07;;;;;;;;;;;29.90;51.80;;;;;;5036398;28;19999;-76
2023/05/13 12:19:33;;;;;;;;;;;29.60;49.60;;;;;;5069614;28;20028;-72
2023/05/13 12:21:58;;;;;;;;;;;29.40;50.60;;;;;;5036399;28;19921;-72
2023/05/13 12:24:24;;;;;;;;;;;29.00;48.80;;;;;;5053674;28;19920;-71
2023/05/13 12:26:50;;;;;;;;;;;28.90;45.90;;;;;;5035525;28;19936;-71
2023/05/13 12:29:15;;;;;;;;;;;29.20;50.40;;;;;;5035939;28;19921;-71
2023/05/13 12:32:02;;;;;;;;;;;29.60;44.50;;;;;;5035993;28;19921;-71
2023/05/13 12:34:31;;;;;;;;;;;30.20;50.20;;;;;;5036379;28;19920;-71
2023/05/13 12:37:08;;;;;;;;;;;30.70;45.70;;;;;;5035926;28;19927;-70
2023/05/13 12:39:33;;;;;;;;;;;30.40;46.10;;;;;;5035930;28;19921;-74
2023/05/13 12:41:59;;;;;;;;;;;30.10;48.10;;;;;;5035581;28;19928;-70
2023/05/13 12:44:25;;;;;;;;;;;29.80;46.80;;;;;;5019469;28;20308;-70
2023/05/13 12:46:52;;;;;;;;;;;29.40;47.90;;;;;;5035832;28;19929;-70
2023/05/13 12:49:17;;;;;;;;;;;28.80;46.20;;;;;;5036019;28;19921;-70
2023/05/13 12:51:43;;;;;;;;;;;28.50;47.80;;;;;;5053209;28;20004;-70
2023/05/13 12:54:09;;;;;;;;;;;28.80;48.40;;;;;;5019599;28;20019;-70
2023/05/13 12:56:35;;;;;;;;;;;29.70;48.70;;;;;;5035394;28;19921;-73
2023/05/13 12:59:00;;;;;;;;;;;30.50;47.70;;;;;;5052867;28;20403;-71
2023/05/13 13:01:26;;;;;;;;;;;31.30;46.60;;;;;;5035758;28;19928;-71
2023/05/13 13:03:51;;;;;;;;;;;31.80;45.90;;;;;;5052970;28;19967;-71
2023/05/13 13:06:17;;;;;;;;;;;32.00;43.90;;;;;;5068596;28;20003;-71
2023/05/13 13:08:42;;;;;;;;;;;32.30;43.20;;;;;;5068694;28;19971;-71
2023/05/13 13:11:09;;;;;;;;;;;32.80;39.70;;;;;;5053138;28;19974;-71
2023/05/13 13:13:37;;;;;;;;;;;33.00;41.30;;;;;;5034994;28;20064;-71
2023/05/13 13:16:02;;;;;;;;;;;33.50;41.90;;;;;;5034876;28;20374;-71
2023/05/13 13:18:28;;;;;;;;;;;33.80;40.90;;;;;;5035320;28;19951;-71
2023/05/13 13:20:54;;;;;;;;;;;33.80;40.60;;;;;;5018093;28;20305;-77
2023/05/13 13:23:19;;;;;;;;;;;33.80;38.40;;;;;;5035299;28;20078;-79
2023/05/13 13:25:45;;;;;;;;;;;34.00;37.60;;;;;;5067785;28;19966;-79
2023/05/13 13:28:10;;;;;;;;;;;34.40;39.20;;;;;;5068265;28;19928;-79
2023/05/13 13:30:37;;;;;;;;;;;35.00;39.70;;;;;;5018798;28;19925;-79
2023/05/13 13:33:02;;;;;;;;;;;35.80;41.00;;;;;;5033995;28;20266;-81
2023/05/13 13:35:28;;;;;;;;;;;36.40;38.10;;;;;;5018422;28;19940;-79
2023/05/13 13:37:54;;;;;;;;;;;36.50;39.10;;;;;;5018218;28;19920;-79
2023/05/13 13:40:20;;;;;;;;;;;35.80;38.70;;;;;;5002436;28;19924;-78
2023/05/13 13:42:46;;;;;;;;;;;34.80;38.90;;;;;;5001636;28;19921;-78
2023/05/13 13:45:12;;;;;;;;;;;34.60;39.30;;;;;;5001948;28;19921;-78
2023/05/13 13:47:38;;;;;;;;;;;35.10;39.20;;;;;;5018520;28;19925;-78
2023/05/13 13:50:04;;;;;;;;;;;35.80;37.00;;;;;;5034317;28;19927;-75
2023/05/13 13:52:29;;;;;;;;;;;36.30;36.70;;;;;;5033635;28;19968;-71
2023/05/13 13:54:55;;;;;;;;;;;36.90;37.60;;;;;;5051123;28;19928;-76
2023/05/13 13:57:21;;;;;;;;;;;37.00;36.70;;;;;;5067798;28;19928;-75
2023/05/13 13:59:46;;;;;;;;;;;37.30;37.20;;;;;;5017718;28;19921;-75
2023/05/13 14:02:12;;;;;;;;;;;37.80;37.20;;;;;;5067662;28;19928;-75
2023/05/13 14:04:37;;;;;;;;;;;38.30;35.20;;;;;;5067950;28;20026;-75
2023/05/13 14:07:03;;;;;;;;;;;38.70;34.30;;;;;;5034135;28;19917;-72
2023/05/13 14:09:30;;;;;;;;;;;39.10;35.20;;;;;;5018304;28;20061;-74
2023/05/13 14:11:55;;;;;;;;;;;38.90;33.40;;;;;;5017916;28;20404;-75